VOZ805 YMML-YSSY
Flight info
| Callsign | VOZ805 |
|---|---|
| Flight time | 1h 8m |
| Altitude | 39000 |
| Route | ML H129 DOSEL Y59 RIVET |
| Aircraft | B738/M-SDE2E3FGHIRWXY/LB1 |
Departure
| Time | 2026-05-08 00:32 |
|---|---|
| Airport | Melbourne Airport (YMML) |
Arrival
| Time | 2026-05-08 01:40 |
|---|---|
| Airport | Sydney Kingsford Smith International Airport (YSSY) |
| Time | Latitude | Longitude | Altitude | Speed | Heading |
|---|---|---|---|---|---|
| 2026-05-08 00:15 | -37.66759 | 144.84910 | 399 ft | 0 kts | 81° |
| 2026-05-08 00:19 | -37.66762 | 144.84890 | 388 ft | 4 kts | 81° |
| 2026-05-08 00:19 | -37.66770 | 144.84859 | 397 ft | 4 kts | 51° |
| 2026-05-08 00:20 | -37.66789 | 144.84841 | 395 ft | 4 kts | 3° |
| 2026-05-08 00:20 | -37.66801 | 144.84842 | 393 ft | 1 kts | 353° |
| 2026-05-08 00:20 | -37.66802 | 144.84842 | 393 ft | 0 kts | 353° |
| 2026-05-08 00:22 | -37.66801 | 144.84842 | 393 ft | 1 kts | 353° |
| 2026-05-08 00:22 | -37.66785 | 144.84839 | 395 ft | 0 kts | 352° |
| 2026-05-08 00:22 | -37.66778 | 144.84837 | 395 ft | 4 kts | 351° |
| 2026-05-08 00:22 | -37.66723 | 144.84820 | 399 ft | 10 kts | 344° |
| 2026-05-08 00:23 | -37.66657 | 144.84801 | 401 ft | 13 kts | 349° |
| 2026-05-08 00:23 | -37.66554 | 144.84803 | 404 ft | 11 kts | 354° |
| 2026-05-08 00:23 | -37.66485 | 144.84779 | 407 ft | 8 kts | 349° |
| 2026-05-08 00:23 | -37.66447 | 144.84776 | 407 ft | 0 kts | 2° |
| 2026-05-08 00:24 | -37.66424 | 144.84777 | 409 ft | 7 kts | 2° |
| 2026-05-08 00:24 | -37.66399 | 144.84779 | 409 ft | 0 kts | 2° |
| 2026-05-08 00:25 | -37.66378 | 144.84782 | 408 ft | 9 kts | 6° |
| 2026-05-08 00:25 | -37.66339 | 144.84786 | 411 ft | 2 kts | 5° |
| 2026-05-08 00:25 | -37.66338 | 144.84786 | 411 ft | 0 kts | 5° |
| 2026-05-08 00:26 | -37.66336 | 144.84786 | 411 ft | 1 kts | 5° |
| 2026-05-08 00:27 | -37.66319 | 144.84788 | 410 ft | 4 kts | 6° |
| 2026-05-08 00:27 | -37.66271 | 144.84794 | 412 ft | 9 kts | 358° |
| 2026-05-08 00:27 | -37.66225 | 144.84761 | 409 ft | 4 kts | 299° |
| 2026-05-08 00:27 | -37.66223 | 144.84746 | 412 ft | 0 kts | 273° |
| 2026-05-08 00:31 | -37.66211 | 144.84540 | 411 ft | 60 kts | 274° |
| 2026-05-08 00:31 | -37.66163 | 144.83705 | 414 ft | 127 kts | 273° |
| 2026-05-08 00:32 | -37.66059 | 144.82419 | 762 ft | 153 kts | 271° |
| 2026-05-08 00:32 | -37.65949 | 144.81120 | 1771 ft | 147 kts | 269° |
| 2026-05-08 00:32 | -37.65899 | 144.80249 | 2236 ft | 154 kts | 266° |
| 2026-05-08 00:32 | -37.65833 | 144.78851 | 2890 ft | 164 kts | 265° |
| 2026-05-08 00:33 | -37.65787 | 144.77413 | 3631 ft | 169 kts | 264° |
| 2026-05-08 00:33 | -37.65637 | 144.75889 | 4225 ft | 191 kts | 281° |
| 2026-05-08 00:33 | -37.64662 | 144.74507 | 4404 ft | 239 kts | 324° |
| 2026-05-08 00:33 | -37.62934 | 144.74028 | 4722 ft | 267 kts | 352° |
| 2026-05-08 00:34 | -37.61011 | 144.73899 | 4994 ft | 287 kts | 352° |
| 2026-05-08 00:34 | -37.58982 | 144.73742 | 5592 ft | 296 kts | 351° |
| 2026-05-08 00:34 | -37.56916 | 144.73544 | 6413 ft | 299 kts | 351° |
| 2026-05-08 00:34 | -37.54834 | 144.73310 | 7203 ft | 302 kts | 351° |
| 2026-05-08 00:35 | -37.52714 | 144.73054 | 7882 ft | 309 kts | 350° |
| 2026-05-08 00:35 | -37.50550 | 144.72799 | 8615 ft | 316 kts | 354° |
| 2026-05-08 00:35 | -37.48359 | 144.73208 | 9319 ft | 325 kts | 23° |
| 2026-05-08 00:35 | -37.46511 | 144.74811 | 10098 ft | 323 kts | 51° |
| 2026-05-08 00:36 | -37.45224 | 144.77139 | 10571 ft | 333 kts | 64° |
| 2026-05-08 00:36 | -37.44025 | 144.79752 | 10737 ft | 356 kts | 66° |
| 2026-05-08 00:36 | -37.42791 | 144.82531 | 11122 ft | 370 kts | 65° |
| 2026-05-08 00:36 | -37.41523 | 144.85380 | 11771 ft | 374 kts | 65° |
| 2026-05-08 00:37 | -37.40235 | 144.88241 | 12501 ft | 378 kts | 65° |
| 2026-05-08 00:37 | -37.38925 | 144.91126 | 13221 ft | 382 kts | 65° |
| 2026-05-08 00:37 | -37.37594 | 144.94037 | 13973 ft | 386 kts | 64° |
| 2026-05-08 00:38 | -37.34884 | 144.99927 | 15380 ft | 393 kts | 63° |
| 2026-05-08 00:38 | -37.33506 | 145.02915 | 16055 ft | 398 kts | 64° |
| 2026-05-08 00:38 | -37.32103 | 145.05954 | 16672 ft | 404 kts | 63° |
| 2026-05-08 00:38 | -37.30686 | 145.09019 | 17362 ft | 408 kts | 63° |
| 2026-05-08 00:39 | -37.29252 | 145.12117 | 18068 ft | 412 kts | 63° |
| 2026-05-08 00:39 | -37.27804 | 145.15242 | 18710 ft | 416 kts | 63° |
| 2026-05-08 00:39 | -37.26343 | 145.18394 | 19280 ft | 420 kts | 63° |
| 2026-05-08 00:39 | -37.24867 | 145.21577 | 19867 ft | 423 kts | 63° |
| 2026-05-08 00:40 | -37.23376 | 145.24787 | 20439 ft | 427 kts | 63° |
| 2026-05-08 00:40 | -37.21873 | 145.28018 | 21035 ft | 431 kts | 63° |
| 2026-05-08 00:40 | -37.20358 | 145.31276 | 21558 ft | 435 kts | 63° |
| 2026-05-08 00:40 | -37.18826 | 145.34567 | 22093 ft | 439 kts | 63° |
| 2026-05-08 00:41 | -37.17277 | 145.37890 | 22632 ft | 443 kts | 63° |
| 2026-05-08 00:41 | -37.15665 | 145.41201 | 23193 ft | 447 kts | 59° |
| 2026-05-08 00:41 | -37.13920 | 145.44390 | 23704 ft | 452 kts | 57° |
| 2026-05-08 00:41 | -37.12068 | 145.47588 | 24180 ft | 455 kts | 56° |
| 2026-05-08 00:42 | -37.10178 | 145.50786 | 24635 ft | 458 kts | 56° |
| 2026-05-08 00:42 | -37.08278 | 145.54001 | 25090 ft | 461 kts | 56° |
| 2026-05-08 00:42 | -37.06347 | 145.57291 | 25514 ft | 464 kts | 56° |
| 2026-05-08 00:42 | -37.04461 | 145.60527 | 25923 ft | 467 kts | 57° |
| 2026-05-08 00:43 | -37.02547 | 145.63830 | 26341 ft | 470 kts | 57° |
| 2026-05-08 00:43 | -37.00601 | 145.67198 | 26760 ft | 472 kts | 57° |
| 2026-05-08 00:43 | -36.98673 | 145.70538 | 27184 ft | 475 kts | 57° |
| 2026-05-08 00:43 | -36.96735 | 145.73894 | 27580 ft | 477 kts | 57° |
| 2026-05-08 00:44 | -36.94809 | 145.77228 | 27954 ft | 480 kts | 57° |
| 2026-05-08 00:44 | -36.92846 | 145.80621 | 28332 ft | 484 kts | 57° |
| 2026-05-08 00:44 | -36.90859 | 145.84052 | 28621 ft | 489 kts | 57° |
| 2026-05-08 00:44 | -36.88858 | 145.87503 | 28963 ft | 491 kts | 57° |
| 2026-05-08 00:45 | -36.86848 | 145.90962 | 29365 ft | 493 kts | 57° |
| 2026-05-08 00:45 | -36.84830 | 145.94432 | 29745 ft | 495 kts | 57° |
| 2026-05-08 00:45 | -36.82804 | 145.97913 | 30075 ft | 497 kts | 57° |
| 2026-05-08 00:45 | -36.80768 | 146.01408 | 30368 ft | 500 kts | 57° |
| 2026-05-08 00:46 | -36.78717 | 146.04925 | 30655 ft | 502 kts | 57° |
| 2026-05-08 00:46 | -36.76651 | 146.08464 | 30890 ft | 506 kts | 57° |
| 2026-05-08 00:46 | -36.74577 | 146.12013 | 31121 ft | 508 kts | 57° |
| 2026-05-08 00:46 | -36.72493 | 146.15575 | 31468 ft | 508 kts | 57° |
| 2026-05-08 00:47 | -36.70419 | 146.19115 | 31896 ft | 505 kts | 57° |
| 2026-05-08 00:47 | -36.68347 | 146.22646 | 32330 ft | 503 kts | 57° |
| 2026-05-08 00:47 | -36.66289 | 146.26152 | 32690 ft | 502 kts | 57° |
| 2026-05-08 00:47 | -36.64227 | 146.29662 | 33031 ft | 502 kts | 57° |
| 2026-05-08 00:48 | -36.62165 | 146.33170 | 33394 ft | 501 kts | 57° |
| 2026-05-08 00:48 | -36.60103 | 146.36673 | 33763 ft | 500 kts | 57° |
| 2026-05-08 00:48 | -36.58050 | 146.40157 | 34123 ft | 499 kts | 57° |
| 2026-05-08 00:48 | -36.55995 | 146.43640 | 34435 ft | 499 kts | 57° |
| 2026-05-08 00:49 | -36.53946 | 146.47111 | 34732 ft | 498 kts | 56° |
| 2026-05-08 00:49 | -36.51899 | 146.50575 | 35046 ft | 496 kts | 56° |
| 2026-05-08 00:49 | -36.49856 | 146.54026 | 35364 ft | 495 kts | 56° |
| 2026-05-08 00:49 | -36.47823 | 146.57459 | 35665 ft | 493 kts | 56° |
| 2026-05-08 00:50 | -36.45794 | 146.60882 | 35982 ft | 491 kts | 56° |
| 2026-05-08 00:50 | -36.43766 | 146.64299 | 36274 ft | 490 kts | 56° |
| 2026-05-08 00:50 | -36.41743 | 146.67704 | 36540 ft | 490 kts | 56° |
| 2026-05-08 00:50 | -36.39722 | 146.71103 | 36816 ft | 489 kts | 56° |
| 2026-05-08 00:51 | -36.37705 | 146.74493 | 37077 ft | 488 kts | 56° |
| 2026-05-08 00:51 | -36.35686 | 146.77882 | 37314 ft | 487 kts | 55° |
| 2026-05-08 00:51 | -36.33675 | 146.81254 | 37596 ft | 486 kts | 55° |
| 2026-05-08 00:51 | -36.31668 | 146.84615 | 37920 ft | 484 kts | 55° |
| 2026-05-08 00:52 | -36.29659 | 146.87979 | 38069 ft | 486 kts | 55° |
| 2026-05-08 00:52 | -36.25615 | 146.94737 | 38393 ft | 488 kts | 54° |
| 2026-05-08 00:52 | -36.23593 | 146.98111 | 38689 ft | 486 kts | 54° |
| 2026-05-08 00:53 | -36.21587 | 147.01458 | 38949 ft | 483 kts | 54° |
| 2026-05-08 00:53 | -36.19582 | 147.04797 | 39152 ft | 482 kts | 53° |
| 2026-05-08 00:53 | -36.17588 | 147.08115 | 39226 ft | 484 kts | 53° |
| 2026-05-08 00:54 | -36.13547 | 147.14828 | 39246 ft | 489 kts | 53° |
| 2026-05-08 00:54 | -36.09480 | 147.21576 | 39240 ft | 490 kts | 53° |
| 2026-05-08 00:55 | -36.05394 | 147.28332 | 39223 ft | 490 kts | 53° |
| 2026-05-08 00:55 | -36.01311 | 147.35082 | 39234 ft | 490 kts | 53° |
| 2026-05-08 00:56 | -35.97238 | 147.41814 | 39242 ft | 490 kts | 53° |
| 2026-05-08 00:56 | -35.93154 | 147.48540 | 39233 ft | 489 kts | 53° |
| 2026-05-08 00:57 | -35.89071 | 147.55251 | 39234 ft | 489 kts | 52° |
| 2026-05-08 00:57 | -35.84986 | 147.61946 | 39239 ft | 488 kts | 52° |
| 2026-05-08 00:58 | -35.80906 | 147.68624 | 39249 ft | 488 kts | 53° |
| 2026-05-08 00:58 | -35.76818 | 147.75291 | 39223 ft | 487 kts | 52° |
| 2026-05-08 00:59 | -35.72741 | 147.81932 | 39228 ft | 486 kts | 52° |
| 2026-05-08 00:59 | -35.68664 | 147.88566 | 39235 ft | 486 kts | 52° |
| 2026-05-08 01:00 | -35.64587 | 147.95190 | 39234 ft | 485 kts | 52° |
| 2026-05-08 01:00 | -35.60512 | 148.01806 | 39245 ft | 485 kts | 52° |
| 2026-05-08 01:01 | -35.56441 | 148.08396 | 39233 ft | 486 kts | 52° |
| 2026-05-08 01:01 | -35.52352 | 148.14999 | 39227 ft | 486 kts | 51° |
| 2026-05-08 01:02 | -35.48255 | 148.21602 | 39241 ft | 486 kts | 51° |
| 2026-05-08 01:02 | -35.44151 | 148.28207 | 39223 ft | 487 kts | 51° |
| 2026-05-08 01:03 | -35.40032 | 148.34815 | 39224 ft | 489 kts | 51° |
| 2026-05-08 01:03 | -35.35890 | 148.41435 | 39206 ft | 489 kts | 51° |
| 2026-05-08 01:04 | -35.31745 | 148.48049 | 39244 ft | 490 kts | 51° |
| 2026-05-08 01:04 | -35.27579 | 148.54688 | 39217 ft | 492 kts | 51° |
| 2026-05-08 01:04 | -35.25477 | 148.58033 | 38869 ft | 500 kts | 51° |
| 2026-05-08 01:05 | -35.23351 | 148.61412 | 38261 ft | 501 kts | 51° |
| 2026-05-08 01:05 | -35.21231 | 148.64775 | 37698 ft | 498 kts | 51° |
| 2026-05-08 01:05 | -35.19117 | 148.68125 | 37141 ft | 497 kts | 51° |
| 2026-05-08 01:05 | -35.17007 | 148.71466 | 36570 ft | 496 kts | 52° |
| 2026-05-08 01:06 | -35.14910 | 148.74786 | 36212 ft | 490 kts | 52° |
| 2026-05-08 01:06 | -35.12836 | 148.78068 | 35796 ft | 487 kts | 53° |
| 2026-05-08 01:06 | -35.10771 | 148.81333 | 35367 ft | 484 kts | 53° |
| 2026-05-08 01:06 | -35.08715 | 148.84582 | 34964 ft | 481 kts | 53° |
| 2026-05-08 01:07 | -35.06699 | 148.87762 | 34531 ft | 478 kts | 53° |
| 2026-05-08 01:07 | -35.04643 | 148.91005 | 34102 ft | 476 kts | 53° |
| 2026-05-08 01:07 | -35.02623 | 148.94187 | 33647 ft | 473 kts | 53° |
| 2026-05-08 01:07 | -35.00615 | 148.97348 | 33210 ft | 470 kts | 54° |
| 2026-05-08 01:08 | -34.98644 | 149.00448 | 32800 ft | 467 kts | 54° |
| 2026-05-08 01:08 | -34.96661 | 149.03563 | 32406 ft | 463 kts | 54° |
| 2026-05-08 01:08 | -34.94692 | 149.06656 | 32018 ft | 461 kts | 54° |
| 2026-05-08 01:08 | -34.92725 | 149.09741 | 31609 ft | 459 kts | 54° |
| 2026-05-08 01:09 | -34.90771 | 149.12805 | 31202 ft | 457 kts | 53° |
| 2026-05-08 01:09 | -34.88826 | 149.15851 | 30813 ft | 455 kts | 53° |
| 2026-05-08 01:09 | -34.86889 | 149.18882 | 30428 ft | 453 kts | 53° |
| 2026-05-08 01:09 | -34.84960 | 149.21898 | 29994 ft | 451 kts | 53° |
| 2026-05-08 01:10 | -34.83011 | 149.24942 | 29541 ft | 448 kts | 53° |
| 2026-05-08 01:10 | -34.81102 | 149.27924 | 29109 ft | 445 kts | 53° |
| 2026-05-08 01:10 | -34.79207 | 149.30882 | 28699 ft | 442 kts | 54° |
| 2026-05-08 01:10 | -34.77326 | 149.33815 | 28300 ft | 438 kts | 54° |
| 2026-05-08 01:11 | -34.75459 | 149.36720 | 27880 ft | 435 kts | 53° |
| 2026-05-08 01:11 | -34.73660 | 149.39659 | 27507 ft | 430 kts | 59° |
| 2026-05-08 01:11 | -34.72193 | 149.42794 | 27170 ft | 424 kts | 65° |
| 2026-05-08 01:11 | -34.70833 | 149.45961 | 26768 ft | 421 kts | 66° |
| 2026-05-08 01:12 | -34.69497 | 149.49122 | 26378 ft | 419 kts | 66° |
| 2026-05-08 01:12 | -34.68166 | 149.52257 | 25991 ft | 417 kts | 66° |
| 2026-05-08 01:12 | -34.66829 | 149.55373 | 25620 ft | 415 kts | 65° |
| 2026-05-08 01:12 | -34.65491 | 149.58463 | 25238 ft | 413 kts | 65° |
| 2026-05-08 01:13 | -34.64151 | 149.61540 | 24874 ft | 412 kts | 66° |
| 2026-05-08 01:13 | -34.62808 | 149.64611 | 24431 ft | 413 kts | 66° |
| 2026-05-08 01:13 | -34.61916 | 149.66649 | 24154 ft | 412 kts | 66° |
| 2026-05-08 01:13 | -34.60117 | 149.70748 | 23630 ft | 410 kts | 65° |
| 2026-05-08 01:14 | -34.59230 | 149.72769 | 23325 ft | 409 kts | 65° |
| 2026-05-08 01:14 | -34.57897 | 149.75802 | 22918 ft | 406 kts | 65° |
| 2026-05-08 01:14 | -34.56572 | 149.78819 | 22524 ft | 404 kts | 65° |
| 2026-05-08 01:14 | -34.55253 | 149.81818 | 22133 ft | 402 kts | 65° |
| 2026-05-08 01:15 | -34.53941 | 149.84801 | 21732 ft | 399 kts | 65° |
| 2026-05-08 01:15 | -34.52636 | 149.87766 | 21352 ft | 397 kts | 65° |
| 2026-05-08 01:15 | -34.51338 | 149.90709 | 20998 ft | 396 kts | 66° |
| 2026-05-08 01:15 | -34.50040 | 149.93648 | 20596 ft | 396 kts | 66° |
| 2026-05-08 01:16 | -34.48737 | 149.96594 | 20149 ft | 397 kts | 65° |
| 2026-05-08 01:16 | -34.47433 | 149.99539 | 19768 ft | 395 kts | 65° |
| 2026-05-08 01:16 | -34.46132 | 150.02473 | 19378 ft | 395 kts | 65° |
| 2026-05-08 01:16 | -34.44835 | 150.05399 | 19003 ft | 394 kts | 65° |
| 2026-05-08 01:17 | -34.43539 | 150.08322 | 18603 ft | 394 kts | 65° |
| 2026-05-08 01:17 | -34.42242 | 150.11244 | 18199 ft | 393 kts | 65° |
| 2026-05-08 01:17 | -34.40949 | 150.14158 | 17807 ft | 392 kts | 65° |
| 2026-05-08 01:17 | -34.39660 | 150.17058 | 17420 ft | 390 kts | 65° |
| 2026-05-08 01:18 | -34.38376 | 150.19947 | 17047 ft | 390 kts | 65° |
| 2026-05-08 01:18 | -34.37081 | 150.22861 | 16662 ft | 399 kts | 65° |
| 2026-05-08 01:18 | -34.35751 | 150.25853 | 16279 ft | 407 kts | 64° |
| 2026-05-08 01:18 | -34.34401 | 150.28885 | 15856 ft | 410 kts | 64° |
| 2026-05-08 01:19 | -34.33051 | 150.31908 | 15429 ft | 408 kts | 64° |
| 2026-05-08 01:19 | -34.31709 | 150.34915 | 15071 ft | 405 kts | 64° |
| 2026-05-08 01:19 | -34.30374 | 150.37905 | 14681 ft | 403 kts | 64° |
| 2026-05-08 01:19 | -34.29046 | 150.40872 | 14291 ft | 399 kts | 64° |
| 2026-05-08 01:20 | -34.27729 | 150.43812 | 13889 ft | 396 kts | 64° |
| 2026-05-08 01:20 | -34.26425 | 150.46723 | 13517 ft | 391 kts | 64° |
| 2026-05-08 01:20 | -34.25137 | 150.49596 | 13133 ft | 386 kts | 63° |
| 2026-05-08 01:20 | -34.23866 | 150.52434 | 12739 ft | 382 kts | 63° |
| 2026-05-08 01:21 | -34.22608 | 150.55242 | 12354 ft | 378 kts | 63° |
| 2026-05-08 01:21 | -34.21364 | 150.58021 | 11989 ft | 374 kts | 63° |
| 2026-05-08 01:21 | -34.20132 | 150.60767 | 11626 ft | 369 kts | 63° |
| 2026-05-08 01:21 | -34.18916 | 150.63473 | 11254 ft | 365 kts | 63° |
| 2026-05-08 01:22 | -34.17713 | 150.66147 | 10913 ft | 360 kts | 63° |
| 2026-05-08 01:22 | -34.16523 | 150.68788 | 10573 ft | 356 kts | 63° |
| 2026-05-08 01:22 | -34.15347 | 150.71400 | 10306 ft | 349 kts | 63° |
| 2026-05-08 01:22 | -34.14203 | 150.73941 | 10134 ft | 340 kts | 63° |
| 2026-05-08 01:23 | -34.13084 | 150.76431 | 9900 ft | 334 kts | 62° |
| 2026-05-08 01:23 | -34.11997 | 150.78842 | 9920 ft | 320 kts | 62° |
| 2026-05-08 01:23 | -34.10953 | 150.81152 | 9841 ft | 310 kts | 62° |
| 2026-05-08 01:23 | -34.09935 | 150.83407 | 9614 ft | 302 kts | 62° |
| 2026-05-08 01:24 | -34.08932 | 150.85635 | 9153 ft | 303 kts | 63° |
| 2026-05-08 01:24 | -34.07931 | 150.87863 | 8780 ft | 300 kts | 63° |
| 2026-05-08 01:24 | -34.06941 | 150.90063 | 8378 ft | 298 kts | 63° |
| 2026-05-08 01:24 | -34.05952 | 150.92261 | 7997 ft | 297 kts | 64° |
| 2026-05-08 01:25 | -34.04968 | 150.94440 | 7663 ft | 294 kts | 64° |
| 2026-05-08 01:25 | -34.04000 | 150.96581 | 7408 ft | 288 kts | 64° |
| 2026-05-08 01:25 | -34.03266 | 150.98780 | 7127 ft | 279 kts | 87° |
| 2026-05-08 01:25 | -34.03426 | 151.01028 | 6931 ft | 264 kts | 114° |
| 2026-05-08 01:26 | -34.04236 | 151.02957 | 6718 ft | 253 kts | 134° |
| 2026-05-08 01:26 | -34.05399 | 151.04501 | 6612 ft | 249 kts | 140° |
| 2026-05-08 01:26 | -34.06614 | 151.06021 | 6411 ft | 254 kts | 140° |
| 2026-05-08 01:26 | -34.07907 | 151.07457 | 6167 ft | 249 kts | 155° |
| 2026-05-08 01:27 | -34.09465 | 151.08164 | 6017 ft | 240 kts | 170° |
| 2026-05-08 01:27 | -34.11081 | 151.08592 | 5810 ft | 235 kts | 174° |
| 2026-05-08 01:27 | -34.12665 | 151.08977 | 5611 ft | 230 kts | 173° |
| 2026-05-08 01:27 | -34.14222 | 151.09363 | 5418 ft | 228 kts | 173° |
| 2026-05-08 01:28 | -34.15790 | 151.09761 | 5234 ft | 227 kts | 173° |
| 2026-05-08 01:28 | -34.17334 | 151.10157 | 5048 ft | 227 kts | 173° |
| 2026-05-08 01:28 | -34.18874 | 151.10555 | 4861 ft | 226 kts | 173° |
| 2026-05-08 01:28 | -34.20338 | 151.11277 | 4684 ft | 237 kts | 146° |
| 2026-05-08 01:29 | -34.21220 | 151.13010 | 4526 ft | 257 kts | 110° |
| 2026-05-08 01:29 | -34.21154 | 151.15229 | 4338 ft | 273 kts | 83° |
| 2026-05-08 01:29 | -34.20726 | 151.17485 | 4039 ft | 279 kts | 83° |
| 2026-05-08 01:29 | -34.20299 | 151.19767 | 3715 ft | 277 kts | 83° |
| 2026-05-08 01:30 | -34.19883 | 151.21983 | 3482 ft | 271 kts | 83° |
| 2026-05-08 01:30 | -34.19466 | 151.24191 | 3323 ft | 266 kts | 83° |
| 2026-05-08 01:30 | -34.19061 | 151.26331 | 3316 ft | 259 kts | 82° |
| 2026-05-08 01:30 | -34.18659 | 151.28461 | 3316 ft | 262 kts | 83° |
| 2026-05-08 01:31 | -34.18247 | 151.30635 | 3299 ft | 270 kts | 83° |
| 2026-05-08 01:31 | -34.17554 | 151.32776 | 3282 ft | 284 kts | 55° |
| 2026-05-08 01:31 | -34.16006 | 151.34234 | 3281 ft | 285 kts | 18° |
| 2026-05-08 01:31 | -34.14103 | 151.34838 | 3322 ft | 282 kts | 9° |
| 2026-05-08 01:32 | -34.12234 | 151.35343 | 3287 ft | 268 kts | 8° |
| 2026-05-08 01:32 | -34.10454 | 151.35834 | 3182 ft | 256 kts | 8° |
| 2026-05-08 01:32 | -34.08760 | 151.36302 | 3044 ft | 244 kts | 5° |
| 2026-05-08 01:32 | -34.07143 | 151.36385 | 2985 ft | 223 kts | 350° |
| 2026-05-08 01:33 | -34.05601 | 151.36348 | 2983 ft | 218 kts | 353° |
| 2026-05-08 01:33 | -34.04129 | 151.36385 | 2974 ft | 205 kts | 354° |
| 2026-05-08 01:33 | -34.02719 | 151.36459 | 2979 ft | 203 kts | 355° |
| 2026-05-08 01:33 | -34.01314 | 151.36558 | 2991 ft | 202 kts | 357° |
| 2026-05-08 01:34 | -33.99908 | 151.36680 | 2990 ft | 202 kts | 358° |
| 2026-05-08 01:34 | -33.98521 | 151.36820 | 2981 ft | 197 kts | 357° |
| 2026-05-08 01:34 | -33.97174 | 151.36966 | 2994 ft | 193 kts | 357° |
| 2026-05-08 01:34 | -33.95837 | 151.37115 | 2986 ft | 192 kts | 358° |
| 2026-05-08 01:35 | -33.94519 | 151.37265 | 2986 ft | 189 kts | 358° |
| 2026-05-08 01:35 | -33.93216 | 151.37413 | 2975 ft | 189 kts | 359° |
| 2026-05-08 01:35 | -33.91894 | 151.37537 | 2990 ft | 189 kts | 351° |
| 2026-05-08 01:35 | -33.90779 | 151.36961 | 2983 ft | 167 kts | 296° |
| 2026-05-08 01:36 | -33.90535 | 151.35747 | 3018 ft | 146 kts | 252° |
| 2026-05-08 01:36 | -33.90606 | 151.34500 | 2994 ft | 150 kts | 260° |
| 2026-05-08 01:36 | -33.90698 | 151.33291 | 2976 ft | 141 kts | 254° |
| 2026-05-08 01:36 | -33.90844 | 151.32151 | 2865 ft | 132 kts | 253° |
| 2026-05-08 01:37 | -33.90988 | 151.31094 | 2527 ft | 127 kts | 254° |
| 2026-05-08 01:37 | -33.91175 | 151.30065 | 2137 ft | 125 kts | 253° |
| 2026-05-08 01:37 | -33.91391 | 151.29072 | 1851 ft | 121 kts | 254° |
| 2026-05-08 01:37 | -33.91616 | 151.28094 | 1661 ft | 122 kts | 255° |
| 2026-05-08 01:38 | -33.91852 | 151.27082 | 1493 ft | 126 kts | 254° |
| 2026-05-08 01:38 | -33.92091 | 151.26065 | 1305 ft | 126 kts | 255° |
| 2026-05-08 01:38 | -33.92331 | 151.25043 | 1141 ft | 129 kts | 254° |
| 2026-05-08 01:38 | -33.92574 | 151.24008 | 959 ft | 128 kts | 255° |
| 2026-05-08 01:39 | -33.92814 | 151.22990 | 772 ft | 125 kts | 253° |
| 2026-05-08 01:39 | -33.93053 | 151.21973 | 635 ft | 128 kts | 256° |
| 2026-05-08 01:39 | -33.93296 | 151.20918 | 496 ft | 134 kts | 255° |
| 2026-05-08 01:39 | -33.93553 | 151.19842 | 289 ft | 130 kts | 254° |
| 2026-05-08 01:40 | -33.93797 | 151.18818 | 57 ft | 123 kts | 256° |
| 2026-05-08 01:40 | -33.93986 | 151.18003 | 27 ft | 45 kts | 254° |
| 2026-05-08 01:40 | -33.94003 | 151.17812 | 28 ft | 13 kts | 318° |
| 2026-05-08 01:40 | -33.93926 | 151.17786 | 28 ft | 10 kts | 346° |
| 2026-05-08 01:41 | -33.93857 | 151.17768 | 29 ft | 10 kts | 348° |
| 2026-05-08 01:41 | -33.93789 | 151.17769 | 29 ft | 10 kts | 13° |
| 2026-05-08 01:41 | -33.93724 | 151.17788 | 29 ft | 10 kts | 13° |
| 2026-05-08 01:41 | -33.93661 | 151.17807 | 29 ft | 9 kts | 14° |
| 2026-05-08 01:42 | -33.93599 | 151.17823 | 29 ft | 9 kts | 9° |
| 2026-05-08 01:42 | -33.93538 | 151.17828 | 29 ft | 9 kts | 335° |
| 2026-05-08 01:42 | -33.93526 | 151.17777 | 29 ft | 5 kts | 280° |
| 2026-05-08 01:42 | -33.93525 | 151.17768 | 29 ft | 0 kts | 280° |